Time;durP1;ratioP1;P1;durP2;ratioP2;P2;SDS_P1;SDS_P2;PMS_P1;PMS_P2;Temp;Humidity;BMP_temperature;BMP_pressure;BME280_temperature;BME280_humidity;BME280_pressure;Samples;Min_cycle;Max_cycle;Signal;HPM_P1;HPM_P2
2022/11/22 00:02:03;;;;;;;;;;;;;;;;;;5021528;28;20027;-70
2022/11/22 00:04:29;;;;;;;;;;;;;;;;;;5013515;28;19937;-70
2022/11/22 00:06:54;;;;;;;;;;;;;;;;;;5013706;28;19909;-70
2022/11/22 00:09:20;;;;;;;;;;;;;;;;;;5012807;28;19963;-70
2022/11/22 00:11:46;;;;;;;;;;;;;;;;;;5012788;28;19916;-70
2022/11/22 00:14:12;;;;;;;;;;;;;;;;;;5013150;28;19914;-70
2022/11/22 00:16:38;;;;;;;;;;;;;;;;;;5013353;28;19917;-69
2022/11/22 00:19:04;;;;;;;;;;;;;;;;;;5017555;28;19913;-69
2022/11/22 00:21:30;;;;;;;;;;;;;;;;;;5013219;28;19916;-68
2022/11/22 00:23:56;;;;;;;;;;;;;;;;;;5036718;28;19913;-70
2022/11/22 00:26:22;;;;;;;;;;;;;;;;;;5032020;28;19939;-70
2022/11/22 00:28:48;;;;;;;;;;;;;;;;;;5031820;28;19909;-71
2022/11/22 00:31:14;;;;;;;;;;;;;;;;;;5032055;28;19913;-68
2022/11/22 00:33:39;;;;;;;;;;;;;;;;;;5024541;28;20704;-69
2022/11/22 00:36:05;;;;;;;;;;;;;;;;;;5020717;28;19975;-70
2022/11/22 00:38:31;;;;;;;;;;;;;;;;;;5032138;28;20381;-71
2022/11/22 00:40:57;;;;;;;;;;;;;;;;;;5017640;28;19955;-72
2022/11/22 00:43:23;;;;;;;;;;;;;;;;;;5014944;28;20063;-71
2022/11/22 00:45:49;;;;;;;;;;;;;;;;;;5019514;28;19913;-71
2022/11/22 00:48:15;;;;;;;;;;;;;;;;;;5012629;28;19914;-71
2022/11/22 00:50:41;;;;;;;;;;;;;;;;;;5015535;28;20007;-71
2022/11/22 00:53:06;;;;;;;;;;;;;;;;;;5024925;28;19913;-71
2022/11/22 00:55:32;;;;;;;;;;;;;;;;;;5029800;28;19909;-71
2022/11/22 00:57:58;;;;;;;;;;;;;;;;;;5030097;28;19952;-70
2022/11/22 01:00:24;;;;;;;;;;;;;;;;;;5031029;28;19913;-70
2022/11/22 01:02:50;;;;;;;;;;;;;;;;;;5031422;28;19913;-70
2022/11/22 01:05:16;;;;;;;;;;;;;;;;;;5014200;28;20490;-70
2022/11/22 01:07:42;;;;;;;;;;;;;;;;;;5040286;28;19936;-70
2022/11/22 01:10:08;;;;;;;;;;;;;;;;;;5024961;28;20366;-70
2022/11/22 01:12:34;;;;;;;;;;;;;;;;;;5017577;28;19913;-71
2022/11/22 01:15:00;;;;;;;;;;;;;;;;;;5040308;28;19983;-72
2022/11/22 01:17:26;;;;;;;;;;;;;;;;;;5027668;28;19928;-71
2022/11/22 01:19:52;;;;;;;;;;;;;;;;;;5028002;28;19920;-73
2022/11/22 01:22:18;;;;;;;;;;;;;;;;;;5011586;28;19996;-72
2022/11/22 01:24:44;;;;;;;;;;;;;;;;;;5011058;28;20387;-72
2022/11/22 01:27:10;;;;;;;;;;;;;;;;;;5011681;28;19940;-72
2022/11/22 01:29:36;;;;;;;;;;;;;;;;;;5012232;28;19913;-72
2022/11/22 01:32:01;;;;;;;;;;;;;;;;;;5011725;28;19913;-72
2022/11/22 01:34:27;;;;;;;;;;;;;;;;;;5011462;28;19914;-71
2022/11/22 01:36:53;;;;;;;;;;;;;;;;;;5025860;28;19925;-71
2022/11/22 01:39:19;;;;;;;;;;;;;;;;;;5022783;28;20441;-72
2022/11/22 01:41:45;;;;;;;;;;;;;;;;;;5011622;28;19968;-71
2022/11/22 01:44:11;;;;;;;;;;;;;;;;;;5010945;28;19929;-72
2022/11/22 01:46:37;;;;;;;;;;;;;;;;;;5017641;28;19909;-70
2022/11/22 01:49:03;;;;;;;;;;;;;;;;;;5011285;28;19920;-71
2022/11/22 01:51:29;;;;;;;;;;;;;;;;;;5010729;28;19924;-72
2022/11/22 01:53:54;;;;;;;;;;;;;;;;;;5013330;28;20033;-72
2022/11/22 01:56:20;;;;;;;;;;;;;;;;;;5011545;28;19956;-71
2022/11/22 01:58:47;;;;;;;;;;;;;;;;;;5011357;28;19909;-70
2022/11/22 02:01:13;;;;;;;;;;;;;;;;;;5011540;28;19921;-71
2022/11/22 02:03:39;;;;;;;;;;;;;;;;;;5011202;28;19913;-71
2022/11/22 02:06:04;;;;;;;;;;;;;;;;;;5010758;28;19913;-72
2022/11/22 02:08:30;;;;;;;;;;;;;;;;;;5011150;28;20336;-72
2022/11/22 02:10:59;;;;;;;;;;;;;;;;;;5010606;28;20035;-71
2022/11/22 02:13:25;;;;;;;;;;;;;;;;;;5014304;28;19913;-72
2022/11/22 02:15:51;;;;;;;;;;;;;;;;;;5012591;28;19920;-71
2022/11/22 02:18:17;;;;;;;;;;;;;;;;;;5010833;28;19916;-70
2022/11/22 02:20:43;;;;;;;;;;;;;;;;;;5010739;28;19963;-70
2022/11/22 02:23:09;;;;;;;;;;;;;;;;;;5010640;28;19948;-70
2022/11/22 02:25:35;;;;;;;;;;;;;;;;;;5041777;28;19960;-69
2022/11/22 02:28:01;;;;;;;;;;;;;;;;;;5029480;28;19945;-69
2022/11/22 02:30:27;;;;;;;;;;;;;;;;;;5029203;28;20432;-70
2022/11/22 02:32:52;;;;;;;;;;;;;;;;;;5030065;28;19964;-70
2022/11/22 02:35:18;;;;;;;;;;;;;;;;;;5026709;28;20396;-70
2022/11/22 02:37:44;;;;;;;;;;;;;;;;;;5010636;28;19924;-70
2022/11/22 02:40:10;;;;;;;;;;;;;;;;;;5010674;28;19914;-69
2022/11/22 02:42:36;;;;;;;;;;;;;;;;;;5010130;28;20419;-69
2022/11/22 02:45:02;;;;;;;;;;;;;;;;;;5009942;28;19928;-69
2022/11/22 02:47:28;;;;;;;;;;;;;;;;;;5013771;28;19909;-70
2022/11/22 02:49:54;;;;;;;;;;;;;;;;;;5009438;28;19913;-70
2022/11/22 02:52:19;;;;;;;;;;;;;;;;;;5009947;28;19918;-70
2022/11/22 02:54:45;;;;;;;;;;;;;;;;;;5009792;28;19936;-70
2022/11/22 02:57:11;;;;;;;;;;;;;;;;;;5010387;28;19921;-69
2022/11/22 02:59:37;;;;;;;;;;;;;;;;;;5010076;28;20262;-70
2022/11/22 03:02:03;;;;;;;;;;;;;;;;;;5010400;28;19910;-70
2022/11/22 03:04:29;;;;;;;;;;;;;;;;;;5011630;28;20297;-70
2022/11/22 03:06:55;;;;;;;;;;;;;;;;;;5013983;28;19909;-70
2022/11/22 03:09:21;;;;;;;;;;;;;;;;;;5014636;28;19937;-70
2022/11/22 03:11:47;;;;;;;;;;;;;;;;;;5014221;28;19913;-70
2022/11/22 03:14:14;;;;;;;;;;;;;;;;;;5013902;28;20026;-70
2022/11/22 03:16:39;;;;;;;;;;;;;;;;;;5013947;28;19924;-71
2022/11/22 03:19:05;;;;;;;;;;;;;;;;;;5013575;28;19914;-69
2022/11/22 03:21:31;;;;;;;;;;;;;;;;;;5014503;28;19972;-70
2022/11/22 03:23:57;;;;;;;;;;;;;;;;;;5017267;28;19909;-71
2022/11/22 03:26:23;;;;;;;;;;;;;;;;;;5032721;28;20384;-71
2022/11/22 03:28:49;;;;;;;;;;;;;;;;;;5029212;28;19925;-65
2022/11/22 03:31:15;;;;;;;;;;;;;;;;;;5013516;28;19913;-65
2022/11/22 03:33:41;;;;;;;;;;;;;;;;;;5012960;28;19913;-64
2022/11/22 03:36:07;;;;;;;;;;;;;;;;;;5026744;28;19944;-65
2022/11/22 03:38:32;;;;;;;;;;;;;;;;;;5014624;28;19914;-66
2022/11/22 03:40:58;;;;;;;;;;;;;;;;;;5018416;28;19913;-65
2022/11/22 03:43:24;;;;;;;;;;;;;;;;;;5027082;28;19929;-65
2022/11/22 03:45:50;;;;;;;;;;;;;;;;;;5020356;28;19920;-65
2022/11/22 03:48:16;;;;;;;;;;;;;;;;;;5013124;28;19936;-64
2022/11/22 03:50:42;;;;;;;;;;;;;;;;;;5014756;28;19919;-65
2022/11/22 03:53:08;;;;;;;;;;;;;;;;;;5019454;28;20463;-66
2022/11/22 03:55:34;;;;;;;;;;;;;;;;;;5013590;28;19952;-65
2022/11/22 03:58:00;;;;;;;;;;;;;;;;;;5019676;28;19927;-65
2022/11/22 04:03:01;;;;;;;;;;;;;;;;;;5308010;23;20035;-66
2022/11/22 04:05:27;;;;;;;;;;;;;;;;;;5066568;28;20003;-65
2022/11/22 04:07:56;;;;;;;;;;;;;;;;;;5072373;28;19951;-65
2022/11/22 04:10:21;;;;;;;;;;;;;;;;;;5072078;28;19916;-65
2022/11/22 04:12:47;;;;;;;;;;;;;;;;;;5053205;28;20509;-66
2022/11/22 04:15:13;;;;;;;;;;;;;;;;;;5051794;28;19908;-64
2022/11/22 04:17:39;;;;;;;;;;;;;;;;;;5045832;28;20399;-65
2022/11/22 04:22:50;;;;;;;;;;;;;;;;;;5052075;28;19960;-65
2022/11/22 04:25:16;;;;;;;;;;;;;;;;;;5052813;28;19913;-65
2022/11/22 04:27:41;;;;;;;;;;;;;;;;;;5052413;28;19959;-65
2022/11/22 04:30:07;;;;;;;;;;;;;;;;;;5052222;28;20411;-66
2022/11/22 04:32:45;;;;;;;;;;;;;;;;;;5052547;28;19995;-65
2022/11/22 04:35:11;;;;;;;;;;;;;;;;;;5052238;28;19921;-66
2022/11/22 04:37:37;;;;;;;;;;;;;;;;;;5052256;28;19990;-66
2022/11/22 04:40:03;;;;;;;;;;;;;;;;;;5052524;28;19960;-66
2022/11/22 04:45:14;;;;;;;;;;;;;;;;;;5052222;28;20046;-66
2022/11/22 04:47:58;;;;;;;;;;;;;;;;;;5067801;28;20368;-67
2022/11/22 04:53:08;;;;;;;;;;;;;;;;;;5046708;28;19924;-66
2022/11/22 04:55:34;;;;;;;;;;;;;;;;;;5051888;28;19909;-66
2022/11/22 04:58:00;;;;;;;;;;;;;;;;;;5051718;28;19966;-67
2022/11/22 05:00:26;;;;;;;;;;;;;;;;;;5051501;28;19912;-66
2022/11/22 05:02:52;;;;;;;;;;;;;;;;;;5051293;28;19921;-66
2022/11/22 05:05:18;;;;;;;;;;;;;;;;;;5051498;28;20007;-66
2022/11/22 05:07:44;;;;;;;;;;;;;;;;;;5051554;28;20328;-66
2022/11/22 05:10:10;;;;;;;;;;;;;;;;;;5051765;28;19923;-65
2022/11/22 05:12:36;;;;;;;;;;;;;;;;;;5051401;28;19917;-65
2022/11/22 05:15:02;;;;;;;;;;;;;;;;;;5051169;28;19915;-66
2022/11/22 05:17:28;;;;;;;;;;;;;;;;;;5051483;28;20011;-66
2022/11/22 05:19:54;;;;;;;;;;;;;;;;;;5051196;28;20403;-66
2022/11/22 05:23:53;;;;;;;;;;;;;;;;;;5050999;28;19966;-66
2022/11/22 05:25:06;;;;;;;;;;;;;;;;;;5050919;28;19924;-66
2022/11/22 05:27:32;;;;;;;;;;;;;;;;;;5049910;28;19909;-66
2022/11/22 05:29:57;;;;;;;;;;;;;;;;;;5050936;28;19909;-67
2022/11/22 05:32:23;;;;;;;;;;;;;;;;;;5050538;28;20377;-65
2022/11/22 05:34:49;;;;;;;;;;;;;;;;;;5050636;28;19981;-66
2022/11/22 05:37:15;;;;;;;;;;;;;;;;;;5050791;28;19921;-66
2022/11/22 05:39:41;;;;;;;;;;;;;;;;;;5050993;28;19971;-66
2022/11/22 05:42:07;;;;;;;;;;;;;;;;;;5050612;28;19916;-66
2022/11/22 05:44:33;;;;;;;;;;;;;;;;;;5050296;28;19933;-66
2022/11/22 05:46:59;;;;;;;;;;;;;;;;;;5061816;28;19999;-67
2022/11/22 05:49:24;;;;;;;;;;;;;;;;;;5069935;28;19908;-66
2022/11/22 05:51:50;;;;;;;;;;;;;;;;;;5069673;28;19920;-66
2022/11/22 05:54:16;;;;;;;;;;;;;;;;;;5069770;28;19919;-67
2022/11/22 05:56:42;;;;;;;;;;;;;;;;;;5069803;28;20481;-63
2022/11/22 05:59:08;;;;;;;;;;;;;;;;;;5069303;28;19909;-66
2022/11/22 06:01:34;;;;;;;;;;;;;;;;;;5069263;28;19922;-65
2022/11/22 06:04:01;;;;;;;;;;;;;;;;;;5053599;28;20275;-65
2022/11/22 06:06:27;;;;;;;;;;;;;;;;;;5050750;28;20270;-65
2022/11/22 06:08:53;;;;;;;;;;;;;;;;;;5050170;28;19931;-66
2022/11/22 06:11:19;;;;;;;;;;;;;;;;;;5049955;28;20011;-66
2022/11/22 06:13:45;;;;;;;;;;;;;;;;;;5049631;28;19912;-66
2022/11/22 06:16:11;;;;;;;;;;;;;;;;;;5050547;28;19920;-64
2022/11/22 06:18:37;;;;;;;;;;;;;;;;;;5050374;28;19962;-66
2022/11/22 06:21:03;;;;;;;;;;;;;;;;;;5050253;28;19963;-65
2022/11/22 06:23:29;;;;;;;;;;;;;;;;;;5050122;28;19912;-64
2022/11/22 06:25:58;;;;;;;;;;;;;;;;;;5050125;28;19909;-65
2022/11/22 06:28:23;;;;;;;;;;;;;;;;;;5048114;28;19913;-66
2022/11/22 06:30:49;;;;;;;;;;;;;;;;;;5050417;28;20365;-66
2022/11/22 06:33:15;;;;;;;;;;;;;;;;;;5049818;28;19909;-64
2022/11/22 06:35:41;;;;;;;;;;;;;;;;;;5050312;28;19913;-65
2022/11/22 06:38:07;;;;;;;;;;;;;;;;;;5049512;28;20045;-64
2022/11/22 06:40:33;;;;;;;;;;;;;;;;;;5049994;28;19920;-65
2022/11/22 06:42:59;;;;;;;;;;;;;;;;;;5048271;28;19963;-63
2022/11/22 06:45:25;;;;;;;;;;;;;;;;;;5049955;28;20360;-64
2022/11/22 06:47:51;;;;;;;;;;;;;;;;;;5062102;28;19962;-65
2022/11/22 06:50:17;;;;;;;;;;;;;;;;;;5068960;28;20376;-64
2022/11/22 06:52:42;;;;;;;;;;;;;;;;;;5068906;28;19977;-65
2022/11/22 06:55:08;;;;;;;;;;;;;;;;;;5068727;28;19916;-65
2022/11/22 06:57:34;;;;;;;;;;;;;;;;;;5068435;28;20565;-65
2022/11/22 07:00:00;;;;;;;;;;;;;;;;;;5069207;28;19908;-65
2022/11/22 07:02:26;;;;;;;;;;;;;;;;;;5048764;28;20018;-66
2022/11/22 07:04:52;;;;;;;;;;;;;;;;;;5049343;28;19909;-69
2022/11/22 07:07:18;;;;;;;;;;;;;;;;;;5049728;28;20003;-74
2022/11/22 07:09:44;;;;;;;;;;;;;;;;;;5049404;28;19912;-74
2022/11/22 07:12:09;;;;;;;;;;;;;;;;;;5049174;28;19920;-76
2022/11/22 07:14:36;;;;;;;;;;;;;;;;;;5049321;28;20424;-73
2022/11/22 07:17:02;;;;;;;;;;;;;;;;;;5051124;28;19928;-73
2022/11/22 07:19:28;;;;;;;;;;;;;;;;;;5052768;28;19909;-73
2022/11/22 07:21:54;;;;;;;;;;;;;;;;;;5051851;28;19909;-73
2022/11/22 07:24:20;;;;;;;;;;;;;;;;;;5067592;28;20312;-74
2022/11/22 07:26:45;;;;;;;;;;;;;;;;;;5067438;28;19961;-73
2022/11/22 07:29:11;;;;;;;;;;;;;;;;;;5068034;28;19957;-73
2022/11/22 07:31:37;;;;;;;;;;;;;;;;;;5068232;28;20373;-72
2022/11/22 07:34:03;;;;;;;;;;;;;;;;;;5378321;22;19979;-72
2022/11/22 07:36:29;;;;;;;;;;;;;;;;;;5029115;28;19939;-72
2022/11/22 07:38:55;;;;;;;;;;;;;;;;;;5029159;28;20549;-73
2022/11/22 07:41:21;;;;;;;;;;;;;;;;;;5027295;28;20372;-73
2022/11/22 07:43:47;;;;;;;;;;;;;;;;;;5029228;28;19920;-73
2022/11/22 07:46:13;;;;;;;;;;;;;;;;;;5029484;28;19913;-73
2022/11/22 07:48:38;;;;;;;;;;;;;;;;;;5028626;28;20371;-73
2022/11/22 07:51:04;;;;;;;;;;;;;;;;;;5031805;28;19939;-73
2022/11/22 07:53:31;;;;;;;;;;;;;;;;;;5032181;28;20341;-73
2022/11/22 07:55:57;;;;;;;;;;;;;;;;;;5032493;28;19939;-73
2022/11/22 07:58:22;;;;;;;;;;;;;;;;;;5032229;28;19921;-73
2022/11/22 08:00:48;;;;;;;;;;;;;;;;;;5032695;28;20003;-73
2022/11/22 08:03:14;;;;;;;;;;;;;;;;;;5032123;28;19920;-71
2022/11/22 08:05:40;;;;;;;;;;;;;;;;;;5032592;28;20410;-72
2022/11/22 08:08:06;;;;;;;;;;;;;;;;;;5032277;28;19917;-73
2022/11/22 08:10:32;;;;;;;;;;;;;;;;;;5031606;28;20325;-73
2022/11/22 08:12:58;;;;;;;;;;;;;;;;;;5031491;28;19913;-73
2022/11/22 08:15:24;;;;;;;;;;;;;;;;;;5032405;28;19909;-73
2022/11/22 08:17:50;;;;;;;;;;;;;;;;;;5032040;28;19925;-72
2022/11/22 08:20:16;;;;;;;;;;;;;;;;;;5031930;28;19920;-73
2022/11/22 08:22:42;;;;;;;;;;;;;;;;;;5031955;28;20858;-73
2022/11/22 08:25:11;;;;;;;;;;;;;;;;;;5031395;28;19928;-73
2022/11/22 08:27:37;;;;;;;;;;;;;;;;;;5032435;28;19913;-72
2022/11/22 08:30:03;;;;;;;;;;;;;;;;;;5032212;28;19920;-73
2022/11/22 08:32:29;;;;;;;;;;;;;;;;;;5031993;28;19916;-73
2022/11/22 08:34:54;;;;;;;;;;;;;;;;;;5032308;28;19947;-72
2022/11/22 08:37:20;;;;;;;;;;;;;;;;;;5031921;28;19917;-73
2022/11/22 08:39:46;;;;;;;;;;;;;;;;;;5031686;28;20385;-73
2022/11/22 08:42:12;;;;;;;;;;;;;;;;;;5031721;28;19956;-73
2022/11/22 08:44:38;;;;;;;;;;;;;;;;;;5031750;28;20036;-73
2022/11/22 08:47:04;;;;;;;;;;;;;;;;;;5031809;28;19913;-73
2022/11/22 08:49:30;;;;;;;;;;;;;;;;;;5031631;28;20385;-73
2022/11/22 08:51:56;;;;;;;;;;;;;;;;;;5031238;28;19959;-68
2022/11/22 08:54:22;;;;;;;;;;;;;;;;;;5030944;28;20350;-73
2022/11/22 08:56:47;;;;;;;;;;;;;;;;;;5031008;28;19918;-73
2022/11/22 08:59:13;;;;;;;;;;;;;;;;;;5031526;28;20297;-74
2022/11/22 09:01:39;;;;;;;;;;;;;;;;;;5030895;28;19913;-73
2022/11/22 09:04:05;;;;;;;;;;;;;;;;;;5031206;28;19913;-73
2022/11/22 09:06:31;;;;;;;;;;;;;;;;;;5030329;28;19948;-73
2022/11/22 09:08:57;;;;;;;;;;;;;;;;;;5031136;28;19909;-74
2022/11/22 09:11:23;;;;;;;;;;;;;;;;;;5030927;28;19909;-73
2022/11/22 09:13:49;;;;;;;;;;;;;;;;;;5031176;28;19913;-73
2022/11/22 09:16:15;;;;;;;;;;;;;;;;;;5031161;28;19913;-73
2022/11/22 09:18:40;;;;;;;;;;;;;;;;;;5030609;28;20034;-73
2022/11/22 09:21:06;;;;;;;;;;;;;;;;;;5030374;28;19975;-73
2022/11/22 09:23:32;;;;;;;;;;;;;;;;;;5030496;28;19913;-73
2022/11/22 09:25:58;;;;;;;;;;;;;;;;;;5030640;28;19996;-72
2022/11/22 09:28:24;;;;;;;;;;;;;;;;;;5031030;28;19921;-73
2022/11/22 09:30:50;;;;;;;;;;;;;;;;;;5030834;28;19952;-74
2022/11/22 09:33:16;;;;;;;;;;;;;;;;;;5030484;28;19925;-73
2022/11/22 09:35:42;;;;;;;;;;;;;;;;;;5029968;28;20017;-74
2022/11/22 09:38:08;;;;;;;;;;;;;;;;;;5030496;28;20388;-74
2022/11/22 09:40:34;;;;;;;;;;;;;;;;;;5030559;28;19999;-73
2022/11/22 09:43:02;;;;;;;;;;;;;;;;;;5030705;28;20123;-73
2022/11/22 09:45:28;;;;;;;;;;;;;;;;;;5030577;28;19920;-74
2022/11/22 09:47:54;;;;;;;;;;;;;;;;;;5030667;28;19913;-73
2022/11/22 09:50:20;;;;;;;;;;;;;;;;;;5029998;28;19921;-74
2022/11/22 09:52:46;;;;;;;;;;;;;;;;;;5030295;28;19952;-73
2022/11/22 09:55:12;;;;;;;;;;;;;;;;;;5030033;28;19916;-73
2022/11/22 09:57:40;;;;;;;;;;;;;;;;;;5029299;28;20400;-73
2022/11/22 10:00:06;;;;;;;;;;;;;;;;;;5030085;28;19963;-73
2022/11/22 10:02:32;;;;;;;;;;;;;;;;;;5024060;28;19921;-73
2022/11/22 10:04:58;;;;;;;;;;;;;;;;;;5029334;28;19913;-73
2022/11/22 10:07:24;;;;;;;;;;;;;;;;;;5030326;28;20468;-73
2022/11/22 10:09:50;;;;;;;;;;;;;;;;;;5030228;28;19913;-73
2022/11/22 10:12:15;;;;;;;;;;;;;;;;;;5029675;28;19909;-74
2022/11/22 10:14:41;;;;;;;;;;;;;;;;;;5030078;28;20001;-73
2022/11/22 10:17:07;;;;;;;;;;;;;;;;;;5029822;28;19963;-73
2022/11/22 10:19:33;;;;;;;;;;;;;;;;;;5029651;28;19920;-74
2022/11/22 10:21:59;;;;;;;;;;;;;;;;;;5028341;28;19992;-73
2022/11/22 10:24:25;;;;;;;;;;;;;;;;;;5029869;28;19944;-73
2022/11/22 10:26:51;;;;;;;;;;;;;;;;;;5029559;28;19913;-72
2022/11/22 10:29:17;;;;;;;;;;;;;;;;;;5029453;28;19954;-73
2022/11/22 10:31:43;;;;;;;;;;;;;;;;;;5030088;28;19932;-73
2022/11/22 10:34:08;;;;;;;;;;;;;;;;;;5028722;28;19929;-73
2022/11/22 10:36:34;;;;;;;;;;;;;;;;;;5029650;28;20433;-73
2022/11/22 10:39:00;;;;;;;;;;;;;;;;;;5029928;28;19909;-73
2022/11/22 10:41:27;;;;;;;;;;;;;;;;;;5029550;28;19959;-73
2022/11/22 10:43:52;;;;;;;;;;;;;;;;;;5029676;28;19909;-73
2022/11/22 10:46:18;;;;;;;;;;;;;;;;;;5033451;28;19916;-73
2022/11/22 10:48:44;;;;;;;;;;;;;;;;;;5029055;28;19992;-73
2022/11/22 10:51:10;;;;;;;;;;;;;;;;;;5030163;28;19920;-74
2022/11/22 10:53:36;;;;;;;;;;;;;;;;;;5029136;28;20004;-74
2022/11/22 10:56:02;;;;;;;;;;;;;;;;;;5029324;28;19959;-74
2022/11/22 10:58:28;;;;;;;;;;;;;;;;;;5028961;28;19918;-73
2022/11/22 11:00:54;;;;;;;;;;;;;;;;;;5029007;28;20446;-73
2022/11/22 11:03:20;;;;;;;;;;;;;;;;;;5029126;28;19910;-73
2022/11/22 11:05:46;;;;;;;;;;;;;;;;;;5029154;28;19913;-73
2022/11/22 11:08:11;;;;;;;;;;;;;;;;;;5029140;28;19909;-74
2022/11/22 11:10:37;;;;;;;;;;;;;;;;;;5029053;28;19967;-73
2022/11/22 11:13:03;;;;;;;;;;;;;;;;;;5029612;28;19917;-73
2022/11/22 11:15:29;;;;;;;;;;;;;;;;;;5029160;28;19909;-74
2022/11/22 11:17:55;;;;;;;;;;;;;;;;;;5029479;28;19917;-73
2022/11/22 11:20:21;;;;;;;;;;;;;;;;;;5029531;28;20359;-73
2022/11/22 11:22:47;;;;;;;;;;;;;;;;;;5029369;28;19909;-73
2022/11/22 11:25:13;;;;;;;;;;;;;;;;;;5031025;28;20288;-74
2022/11/22 11:27:38;;;;;;;;;;;;;;;;;;5033323;28;19913;-73
2022/11/22 11:30:04;;;;;;;;;;;;;;;;;;5033685;28;20109;-73
2022/11/22 11:32:30;;;;;;;;;;;;;;;;;;5032779;28;19913;-73
2022/11/22 11:34:56;;;;;;;;;;;;;;;;;;5032978;28;20276;-73
2022/11/22 11:37:22;;;;;;;;;;;;;;;;;;5032994;28;20443;-73
2022/11/22 11:39:48;;;;;;;;;;;;;;;;;;5032762;28;19921;-73
2022/11/22 11:42:14;;;;;;;;;;;;;;;;;;5032935;28;19913;-73
2022/11/22 11:44:40;;;;;;;;;;;;;;;;;;5032866;28;19913;-73
2022/11/22 11:47:05;;;;;;;;;;;;;;;;;;5035738;28;20415;-75
2022/11/22 11:49:31;;;;;;;;;;;;;;;;;;5023971;28;19920;-74
2022/11/22 11:51:57;;;;;;;;;;;;;;;;;;5025086;28;20710;-75
2022/11/22 11:54:25;;;;;;;;;;;;;;;;;;5024093;28;19917;-76
2022/11/22 11:56:51;;;;;;;;;;;;;;;;;;5025890;28;19925;-77
2022/11/22 11:59:17;;;;;;;;;;;;;;;;;;5025234;28;19917;-76
2022/11/22 12:01:42;;;;;;;;;;;;;;;;;;5024708;28;19945;-76
2022/11/22 12:04:08;;;;;;;;;;;;;;;;;;5023627;28;19917;-76
2022/11/22 12:06:34;;;;;;;;;;;;;;;;;;5027511;28;20365;-74
2022/11/22 12:09:00;;;;;;;;;;;;;;;;;;5024003;28;19917;-74
2022/11/22 12:11:26;;;;;;;;;;;;;;;;;;5016797;28;20057;-76
2022/11/22 12:13:52;;;;;;;;;;;;;;;;;;5021846;28;19917;-76
2022/11/22 12:16:18;;;;;;;;;;;;;;;;;;5026121;28;20503;-74
2022/11/22 12:18:44;;;;;;;;;;;;;;;;;;5024432;28;19917;-75
2022/11/22 12:21:10;;;;;;;;;;;;;;;;;;5023638;28;20266;-76
2022/11/22 12:23:35;;;;;;;;;;;;;;;;;;5025490;28;19924;-75
2022/11/22 12:26:01;;;;;;;;;;;;;;;;;;5016166;28;19924;-70
2022/11/22 12:28:27;;;;;;;;;;;;;;;;;;5025027;28;19942;-75
2022/11/22 12:30:53;;;;;;;;;;;;;;;;;;5023731;28;19979;-75
2022/11/22 12:33:19;;;;;;;;;;;;;;;;;;5025054;28;19925;-75
2022/11/22 12:35:45;;;;;;;;;;;;;;;;;;5020492;28;20370;-76
2022/11/22 12:38:11;;;;;;;;;;;;;;;;;;5026161;28;19921;-75
2022/11/22 12:40:37;;;;;;;;;;;;;;;;;;5023513;28;20634;-76
2022/11/22 12:43:03;;;;;;;;;;;;;;;;;;5025273;28;20002;-74
2022/11/22 12:45:29;;;;;;;;;;;;;;;;;;5021009;28;19937;-71
2022/11/22 12:47:54;;;;;;;;;;;;;;;;;;5027121;28;19920;-74
2022/11/22 12:50:20;;;;;;;;;;;;;;;;;;5029917;28;19964;-72
2022/11/22 12:52:46;;;;;;;;;;;;;;;;;;5030896;28;19913;-73
2022/11/22 12:55:12;;;;;;;;;;;;;;;;;;5031528;28;19913;-73
2022/11/22 12:57:38;;;;;;;;;;;;;;;;;;5031591;28;20019;-73
2022/11/22 13:00:04;;;;;;;;;;;;;;;;;;5031220;28;19916;-73
2022/11/22 13:02:30;;;;;;;;;;;;;;;;;;5031353;28;20274;-74
2022/11/22 13:04:56;;;;;;;;;;;;;;;;;;5031218;28;19913;-73
2022/11/22 13:07:21;;;;;;;;;;;;;;;;;;5031541;28;19913;-73
2022/11/22 13:09:47;;;;;;;;;;;;;;;;;;5031251;28;20369;-73
2022/11/22 13:12:13;;;;;;;;;;;;;;;;;;5030776;28;19936;-73
2022/11/22 13:14:39;;;;;;;;;;;;;;;;;;5030733;28;19968;-73
2022/11/22 13:17:05;;;;;;;;;;;;;;;;;;5031255;28;20020;-73
2022/11/22 13:19:31;;;;;;;;;;;;;;;;;;5030942;28;20365;-72
2022/11/22 13:21:57;;;;;;;;;;;;;;;;;;5031188;28;19913;-73
2022/11/22 13:24:23;;;;;;;;;;;;;;;;;;5029778;28;20381;-74
2022/11/22 13:26:49;;;;;;;;;;;;;;;;;;5030893;28;20003;-73
2022/11/22 13:29:14;;;;;;;;;;;;;;;;;;5030620;28;19970;-73
2022/11/22 13:31:40;;;;;;;;;;;;;;;;;;5031177;28;19916;-73
2022/11/22 13:34:06;;;;;;;;;;;;;;;;;;5030201;28;20012;-73
2022/11/22 13:36:32;;;;;;;;;;;;;;;;;;5030765;28;19917;-73
2022/11/22 13:38:58;;;;;;;;;;;;;;;;;;5030536;28;19941;-73
2022/11/22 13:41:24;;;;;;;;;;;;;;;;;;5030276;28;19955;-73
2022/11/22 13:43:50;;;;;;;;;;;;;;;;;;5030026;28;20275;-74
2022/11/22 13:46:16;;;;;;;;;;;;;;;;;;5033581;28;19913;-73
2022/11/22 13:48:42;;;;;;;;;;;;;;;;;;5030276;28;19920;-74
2022/11/22 13:51:07;;;;;;;;;;;;;;;;;;5030331;28;19996;-73
2022/11/22 13:53:33;;;;;;;;;;;;;;;;;;5030172;28;20063;-73
2022/11/22 13:55:59;;;;;;;;;;;;;;;;;;5030194;28;19936;-74
2022/11/22 13:58:25;;;;;;;;;;;;;;;;;;5029734;28;19921;-73
2022/11/22 14:00:51;;;;;;;;;;;;;;;;;;5030286;28;20445;-74
2022/11/22 14:03:17;;;;;;;;;;;;;;;;;;5030076;28;19920;-73
2022/11/22 14:05:43;;;;;;;;;;;;;;;;;;5029967;28;20008;-74
2022/11/22 14:08:09;;;;;;;;;;;;;;;;;;5030262;28;19913;-73
2022/11/22 14:10:35;;;;;;;;;;;;;;;;;;5030022;28;19967;-74
2022/11/22 14:13:01;;;;;;;;;;;;;;;;;;5029500;28;19920;-74
2022/11/22 14:15:26;;;;;;;;;;;;;;;;;;5029927;28;19916;-74
2022/11/22 14:17:52;;;;;;;;;;;;;;;;;;5030008;28;19921;-74
2022/11/22 14:20:18;;;;;;;;;;;;;;;;;;5029613;28;19928;-73
2022/11/22 14:22:44;;;;;;;;;;;;;;;;;;5030404;28;19909;-74
2022/11/22 14:25:12;;;;;;;;;;;;;;;;;;5029986;28;20400;-74
2022/11/22 14:27:38;;;;;;;;;;;;;;;;;;5029395;28;19920;-74
2022/11/22 14:30:04;;;;;;;;;;;;;;;;;;5029883;28;20488;-74
2022/11/22 14:32:30;;;;;;;;;;;;;;;;;;5029795;28;19913;-73
2022/11/22 14:34:56;;;;;;;;;;;;;;;;;;5029964;28;20340;-74
2022/11/22 14:37:22;;;;;;;;;;;;;;;;;;5030048;28;20011;-73
2022/11/22 14:39:52;;;;;;;;;;;;;;;;;;5029727;28;20046;-72
2022/11/22 14:42:18;;;;;;;;;;;;;;;;;;5028462;28;19909;-73
2022/11/22 14:44:44;;;;;;;;;;;;;;;;;;5027443;28;19939;-73
2022/11/22 14:47:11;;;;;;;;;;;;;;;;;;5032262;28;19913;-73
2022/11/22 14:49:37;;;;;;;;;;;;;;;;;;5029165;28;19913;-73
2022/11/22 14:52:03;;;;;;;;;;;;;;;;;;5028949;28;19916;-72
2022/11/22 14:54:29;;;;;;;;;;;;;;;;;;5028732;28;20007;-73
2022/11/22 14:56:54;;;;;;;;;;;;;;;;;;5019488;28;19925;-74
2022/11/22 14:59:20;;;;;;;;;;;;;;;;;;5024548;28;19917;-74
2022/11/22 15:01:46;;;;;;;;;;;;;;;;;;5030394;28;19968;-73
2022/11/22 15:04:12;;;;;;;;;;;;;;;;;;5026165;28;20028;-73
2022/11/22 15:06:38;;;;;;;;;;;;;;;;;;5031098;28;20363;-73
2022/11/22 15:09:04;;;;;;;;;;;;;;;;;;5025507;28;19917;-74
2022/11/22 15:11:30;;;;;;;;;;;;;;;;;;5030995;28;19921;-74
2022/11/22 15:13:56;;;;;;;;;;;;;;;;;;5029382;28;20435;-74
2022/11/22 15:16:22;;;;;;;;;;;;;;;;;;5028129;28;19923;-74
2022/11/22 15:18:48;;;;;;;;;;;;;;;;;;5027509;28;19925;-73
2022/11/22 15:21:14;;;;;;;;;;;;;;;;;;5029706;28;19924;-73
2022/11/22 15:23:39;;;;;;;;;;;;;;;;;;5027871;28;19913;-74
2022/11/22 15:26:05;;;;;;;;;;;;;;;;;;5027288;28;20420;-75
2022/11/22 15:28:31;;;;;;;;;;;;;;;;;;5029229;28;19913;-73
2022/11/22 15:30:57;;;;;;;;;;;;;;;;;;5027711;28;19912;-74
2022/11/22 15:33:23;;;;;;;;;;;;;;;;;;5030034;28;19932;-74
2022/11/22 15:35:49;;;;;;;;;;;;;;;;;;5030115;28;19971;-74
2022/11/22 15:38:15;;;;;;;;;;;;;;;;;;5030510;28;19924;-71
2022/11/22 15:40:43;;;;;;;;;;;;;;;;;;5026062;28;19917;-71
2022/11/22 15:43:09;;;;;;;;;;;;;;;;;;5030579;28;19913;-73
2022/11/22 15:45:35;;;;;;;;;;;;;;;;;;5028168;28;19923;-73
2022/11/22 15:48:01;;;;;;;;;;;;;;;;;;5031674;28;20369;-73
2022/11/22 15:50:27;;;;;;;;;;;;;;;;;;5027795;28;19917;-73
2022/11/22 15:52:53;;;;;;;;;;;;;;;;;;5031872;28;19976;-71
2022/11/22 15:55:19;;;;;;;;;;;;;;;;;;5027331;28;19916;-72
2022/11/22 15:57:47;;;;;;;;;;;;;;;;;;5030245;28;19925;-73
2022/11/22 16:00:13;;;;;;;;;;;;;;;;;;5030581;28;19963;-73
2022/11/22 16:02:39;;;;;;;;;;;;;;;;;;5027114;28;19917;-73
2022/11/22 16:05:05;;;;;;;;;;;;;;;;;;5029083;28;20357;-73
2022/11/22 16:07:31;;;;;;;;;;;;;;;;;;5028480;28;19999;-73
2022/11/22 16:09:57;;;;;;;;;;;;;;;;;;5027491;28;19939;-74
2022/11/22 16:12:23;;;;;;;;;;;;;;;;;;5023603;28;20334;-74
2022/11/22 16:14:49;;;;;;;;;;;;;;;;;;5026893;28;19914;-74
2022/11/22 16:17:14;;;;;;;;;;;;;;;;;;5027596;28;20374;-73
2022/11/22 16:19:40;;;;;;;;;;;;;;;;;;5026670;28;19921;-73
2022/11/22 16:22:06;;;;;;;;;;;;;;;;;;5023892;28;19925;-73
2022/11/22 16:24:32;;;;;;;;;;;;;;;;;;5022352;28;19913;-73
2022/11/22 16:26:58;;;;;;;;;;;;;;;;;;5024920;28;20382;-73
2022/11/22 16:29:25;;;;;;;;;;;;;;;;;;5027590;28;19917;-71
2022/11/22 16:31:51;;;;;;;;;;;;;;;;;;5023951;28;19913;-72
2022/11/22 16:34:16;;;;;;;;;;;;;;;;;;5024267;28;19926;-73
2022/11/22 16:36:42;;;;;;;;;;;;;;;;;;5024982;28;19964;-73
2022/11/22 16:39:08;;;;;;;;;;;;;;;;;;5026067;28;19944;-73
2022/11/22 16:41:34;;;;;;;;;;;;;;;;;;5022598;28;20420;-73
2022/11/22 16:44:00;;;;;;;;;;;;;;;;;;5027784;28;20420;-74
2022/11/22 16:46:26;;;;;;;;;;;;;;;;;;5027635;28;19913;-73
2022/11/22 16:48:52;;;;;;;;;;;;;;;;;;5026195;28;19917;-73